Time;durP1;ratioP1;P1;durP2;ratioP2;P2;SDS_P1;SDS_P2;PMS_P1;PMS_P2;Temp;Humidity;BMP_temperature;BMP_pressure;BME280_temperature;BME280_humidity;BME280_pressure;Samples;Min_cycle;Max_cycle;Signal;HPM_P1;HPM_P2
2022/04/01 00:00:35;;;;;;;12.15;3.05;;;20.40;63.20;;;;;;5007191;28;20105;-72
2022/04/01 00:03:02;;;;;;;13.18;4.15;;;20.40;63.10;;;;;;5008209;28;20027;-72
2022/04/01 00:05:28;;;;;;;15.27;4.55;;;20.40;63.20;;;;;;5005090;28;20064;-72
2022/04/01 00:07:55;;;;;;;13.88;4.18;;;20.40;63.40;;;;;;5005974;28;20068;-73
2022/04/01 00:10:21;;;;;;;13.57;3.53;;;20.30;63.50;;;;;;5007701;28;20023;-72
2022/04/01 00:12:48;;;;;;;12.52;4.15;;;20.30;63.50;;;;;;5008045;28;20105;-72
2022/04/01 00:15:15;;;;;;;15.80;4.95;;;20.30;63.50;;;;;;5006497;28;20355;-72
2022/04/01 00:17:43;;;;;;;14.18;4.25;;;20.40;63.60;;;;;;5005708;28;21115;-72
2022/04/01 00:20:12;;;;;;;10.98;4.45;;;20.30;63.50;;;;;;5007831;28;20025;-72
2022/04/01 00:22:40;;;;;;;14.57;5.05;;;20.30;63.50;;;;;;5005741;28;20441;-72
2022/04/01 00:25:07;;;;;;;13.32;4.32;;;20.30;63.40;;;;;;5007582;28;20454;-72
2022/04/01 00:27:33;;;;;;;14.98;4.45;;;20.30;63.60;;;;;;5005517;28;20500;-72
2022/04/01 00:30:00;;;;;;;17.10;5.35;;;20.30;63.60;;;;;;5007830;28;20367;-72
2022/04/01 00:32:28;;;;;;;22.30;9.93;;;20.30;63.80;;;;;;5004127;28;20495;-73
2022/04/01 00:34:55;;;;;;;26.63;8.20;;;20.30;64.00;;;;;;5006647;28;20026;-73
2022/04/01 00:37:21;;;;;;;17.45;6.65;;;20.30;64.00;;;;;;5006407;28;20071;-73
2022/04/01 00:39:48;;;;;;;20.88;5.65;;;20.30;64.00;;;;;;5005308;28;20022;-72
2022/04/01 00:42:14;;;;;;;11.98;5.78;;;20.20;64.00;;;;;;5008154;28;20482;-72
2022/04/01 00:44:42;;;;;;;14.82;6.05;;;20.20;64.00;;;;;;5005849;28;20034;-73
2022/04/01 00:47:14;;;;;;;14.35;5.15;;;20.20;64.00;;;;;;5008704;28;20436;-72
2022/04/01 00:49:43;;;;;;;13.85;4.18;;;20.20;64.10;;;;;;5008512;28;20032;-73
2022/04/01 00:52:12;;;;;;;19.05;5.60;;;20.20;64.20;;;;;;5005939;28;20026;-73
2022/04/01 00:54:39;;;;;;;10.90;4.13;;;20.20;64.20;;;;;;5005504;28;20448;-72
2022/04/01 00:57:11;;;;;;;19.85;4.82;;;20.20;64.30;;;;;;5005733;28;20025;-72
2022/04/01 00:59:37;;;;;;;16.85;5.25;;;20.20;64.30;;;;;;5006353;28;20022;-72
2022/04/01 01:02:04;;;;;;;15.68;4.78;;;20.20;64.30;;;;;;5005555;28;20049;-72
2022/04/01 01:04:31;;;;;;;14.57;4.35;;;20.20;64.30;;;;;;5006061;28;20495;-72
2022/04/01 01:07:00;;;;;;;17.63;4.97;;;20.10;64.30;;;;;;5006035;28;20028;-73
2022/04/01 01:09:27;;;;;;;18.70;5.57;;;20.10;64.30;;;;;;5005778;28;20025;-72
2022/04/01 01:11:54;;;;;;;17.27;4.50;;;20.20;64.40;;;;;;5012760;28;20053;-72
2022/04/01 01:14:31;;;;;;;16.95;4.22;;;20.20;64.40;;;;;;5009140;28;20022;-72
2022/04/01 01:17:02;;;;;;;16.15;3.90;;;20.20;64.40;;;;;;5009921;28;20506;-72
2022/04/01 01:19:32;;;;;;;18.13;4.45;;;20.10;64.90;;;;;;5010205;28;20037;-72
2022/04/01 01:21:59;;;;;;;15.27;4.85;;;20.10;64.20;;;;;;5010776;28;20377;-73
2022/04/01 01:24:36;;;;;;;15.15;4.30;;;20.10;64.40;;;;;;5010848;28;20042;-72
2022/04/01 01:27:07;;;;;;;23.85;5.57;;;20.10;64.50;;;;;;5007647;28;20010;-73
2022/04/01 01:29:37;;;;;;;13.93;4.82;;;20.10;64.60;;;;;;5011416;28;20053;-73
2022/04/01 01:32:06;;;;;;;17.10;5.10;;;20.10;64.60;;;;;;5009995;28;20108;-73
2022/04/01 01:34:33;;;;;;;12.30;4.88;;;20.00;64.60;;;;;;5009957;28;20109;-72
2022/04/01 01:37:02;;;;;;;29.30;8.77;;;20.00;64.60;;;;;;5008091;28;20022;-73
2022/04/01 01:39:29;;;;;;;25.35;10.65;;;20.10;65.00;;;;;;5009766;28;20021;-73
2022/04/01 01:41:56;;;;;;;23.33;8.77;;;20.00;65.00;;;;;;5008227;28;20026;-73
2022/04/01 01:44:25;;;;;;;14.35;5.50;;;20.10;64.80;;;;;;5008782;28;20052;-73
2022/04/01 01:46:53;;;;;;;17.67;5.43;;;20.10;64.70;;;;;;5008526;28;20509;-74
2022/04/01 01:49:20;;;;;;;17.00;6.50;;;20.10;64.60;;;;;;5008815;28;20030;-73
2022/04/01 01:54:49;;;;;;;18.42;6.07;;;20.10;64.50;;;;;;5007794;28;20053;-73
2022/04/01 01:57:22;;;;;;;14.77;5.10;;;20.00;64.50;;;;;;5008010;28;20041;-73
2022/04/01 01:59:50;;;;;;;14.32;5.38;;;20.00;64.50;;;;;;5009214;28;20072;-73
2022/04/01 02:02:17;;;;;;;14.82;4.95;;;20.00;64.40;;;;;;5008350;28;20025;-74
2022/04/01 02:04:45;;;;;;;10.60;4.78;;;20.00;64.40;;;;;;5009042;28;20046;-73
2022/04/01 02:07:12;;;;;;;15.98;5.03;;;20.00;64.40;;;;;;5009464;28;20034;-74
2022/04/01 02:09:46;;;;;;;17.98;4.25;;;20.00;64.50;;;;;;5009041;28;20033;-72
2022/04/01 02:12:13;;;;;;;23.33;5.90;;;20.00;64.50;;;;;;5007337;28;20110;-72
2022/04/01 02:14:42;;;;;;;18.45;5.45;;;20.00;64.50;;;;;;5008839;28;20109;-72
2022/04/01 02:17:09;;;;;;;15.00;4.85;;;20.00;64.60;;;;;;5009233;28;20541;-72
2022/04/01 02:19:36;;;;;;;21.83;4.90;;;20.00;64.50;;;;;;5007279;28;20099;-73
2022/04/01 02:22:05;;;;;;;14.02;3.78;;;20.00;64.50;;;;;;5006923;28;20026;-74
2022/04/01 02:24:31;;;;;;;15.30;4.35;;;20.00;64.60;;;;;;5010055;28;20088;-73
2022/04/01 02:26:58;;;;;;;11.70;4.30;;;20.00;64.60;;;;;;5007497;28;20076;-73
2022/04/01 02:29:24;;;;;;;19.17;4.63;;;20.00;64.60;;;;;;5008080;28;20112;-73
2022/04/01 02:31:52;;;;;;;14.38;4.65;;;19.90;64.60;;;;;;5006658;28;20014;-72
2022/04/01 02:34:20;;;;;;;17.40;4.90;;;19.90;64.60;;;;;;5006755;28;20029;-73
2022/04/01 02:36:47;;;;;;;15.65;4.57;;;19.90;64.70;;;;;;4999877;28;20473;-72
2022/04/01 02:39:14;;;;;;;16.70;4.72;;;19.90;64.90;;;;;;5006132;28;20028;-73
2022/04/01 02:41:40;;;;;;;14.55;4.13;;;19.90;64.80;;;;;;5001415;28;20018;-73
2022/04/01 02:44:12;;;;;;;17.42;4.60;;;19.90;64.90;;;;;;5008891;28;20041;-72
2022/04/01 02:46:41;;;;;;;13.77;3.63;;;19.90;65.60;;;;;;5008632;28;20125;-73
2022/04/01 02:49:08;;;;;;;14.00;4.55;;;19.90;65.00;;;;;;5005629;28;20543;-72
2022/04/01 02:51:37;;;;;;;15.73;4.40;;;19.90;65.10;;;;;;5009448;28;20385;-72
2022/04/01 02:54:07;;;;;;;15.48;3.95;;;19.90;65.30;;;;;;5007889;28;20474;-72
2022/04/01 02:56:35;;;;;;;30.92;11.27;;;19.80;65.40;;;;;;5022743;28;20476;-72
2022/04/01 02:59:06;;;;;;;26.08;13.07;;;19.90;65.40;;;;;;5006060;28;20057;-72
2022/04/01 03:01:35;;;;;;;20.88;8.95;;;19.80;65.50;;;;;;5009448;28;20034;-72
2022/04/01 03:04:03;;;;;;;15.60;5.95;;;19.80;65.30;;;;;;5009189;28;20041;-72
2022/04/01 03:06:30;;;;;;;19.15;5.70;;;19.90;65.20;;;;;;5007832;28;20018;-73
2022/04/01 03:08:56;;;;;;;17.52;5.43;;;19.80;65.00;;;;;;5010213;28;20650;-72
2022/04/01 03:11:23;;;;;;;17.67;6.43;;;19.80;65.00;;;;;;5007409;28;20029;-73
2022/04/01 03:13:49;;;;;;;31.38;7.25;;;19.80;65.00;;;;;;5005820;28;20042;-72
2022/04/01 03:16:16;;;;;;;19.27;6.13;;;19.80;65.00;;;;;;5008044;28;20416;-72
2022/04/01 03:18:43;;;;;;;16.50;5.03;;;19.80;65.00;;;;;;5006355;28;20014;-72
2022/04/01 03:21:10;;;;;;;26.90;7.70;;;19.80;65.10;;;;;;5008921;28;20064;-72
2022/04/01 03:23:41;;;;;;;21.58;5.97;;;19.80;65.30;;;;;;5008515;28;20038;-73
2022/04/01 03:26:08;;;;;;;14.40;5.03;;;19.80;65.50;;;;;;5007066;28;20076;-72
2022/04/01 03:28:35;;;;;;;18.67;5.57;;;19.80;65.50;;;;;;5006076;28;20024;-73
2022/04/01 03:31:06;;;;;;;15.60;5.22;;;19.80;65.70;;;;;;5008586;28;20025;-72
2022/04/01 03:33:34;;;;;;;15.90;4.15;;;19.80;65.70;;;;;;5005601;28;20036;-72
2022/04/01 03:36:01;;;;;;;39.22;5.45;;;19.80;65.70;;;;;;5008939;28;20026;-72
2022/04/01 03:38:28;;;;;;;31.05;5.65;;;19.70;65.50;;;;;;5008335;28;20424;-72
2022/04/01 03:40:55;;;;;;;24.23;5.45;;;19.70;65.50;;;;;;5006488;28;20096;-71
2022/04/01 03:43:23;;;;;;;24.90;5.07;;;19.70;65.40;;;;;;5009071;28;20041;-70
2022/04/01 03:45:55;;;;;;;19.77;5.03;;;19.70;65.40;;;;;;5009055;28;20097;-70
2022/04/01 03:49:01;;;;;;;23.90;5.32;;;19.70;65.40;;;;;;5008753;28;20049;-70
2022/04/01 03:51:31;;;;;;;19.20;5.53;;;19.70;65.50;;;;;;5006666;28;21559;-70
2022/04/01 03:54:02;;;;;;;22.58;5.18;;;19.70;65.60;;;;;;5005983;28;20420;-70
2022/04/01 03:56:32;;;;;;;19.23;4.45;;;19.70;65.60;;;;;;5008676;28;20053;-71
2022/04/01 03:59:02;;;;;;;13.75;4.78;;;19.70;65.80;;;;;;5006261;28;20021;-71
2022/04/01 04:01:28;;;;;;;9.25;4.38;;;19.60;65.80;;;;;;5006965;28;20026;-70
2022/04/01 04:04:00;;;;;;;17.45;4.45;;;19.70;65.80;;;;;;5006316;28;20060;-71
2022/04/01 04:06:27;;;;;;;14.65;4.95;;;19.70;65.90;;;;;;5005976;28;20026;-71
2022/04/01 04:08:56;;;;;;;18.20;4.22;;;19.70;65.90;;;;;;5008033;28;20543;-71
2022/04/01 04:11:31;;;;;;;17.95;4.72;;;19.60;66.00;;;;;;5005704;28;20029;-71
2022/04/01 04:14:00;;;;;;;13.37;4.57;;;19.70;66.00;;;;;;5006875;28;20030;-72
2022/04/01 04:16:32;;;;;;;22.20;8.60;;;19.70;66.00;;;;;;5003896;28;20043;-71
2022/04/01 04:19:09;;;;;;;54.58;27.13;;;19.60;66.60;;;;;;5007621;28;20034;-71
2022/04/01 04:21:50;;;;;;;34.22;19.60;;;19.60;66.90;;;;;;5004496;28;20034;-74
2022/04/01 04:24:33;;;;;;;27.08;11.88;;;19.60;67.00;;;;;;5005044;28;20496;-72
2022/04/01 04:27:11;;;;;;;18.05;6.55;;;19.60;66.90;;;;;;5007362;28;20508;-72
2022/04/01 04:29:50;;;;;;;25.80;5.97;;;19.60;67.00;;;;;;5005173;28;20026;-72
2022/04/01 04:32:36;;;;;;;26.17;5.95;;;19.60;66.90;;;;;;5005843;28;20033;-72
2022/04/01 04:35:05;;;;;;;29.92;6.18;;;19.60;66.80;;;;;;5007239;28;20033;-71
2022/04/01 04:37:35;;;;;;;28.92;9.35;;;19.60;67.10;;;;;;5003387;28;20095;-72
2022/04/01 04:40:03;;;;;;;28.65;9.57;;;19.60;66.90;;;;;;5006932;28;20326;-73
2022/04/01 04:42:32;;;;;;;22.08;9.82;;;19.50;66.70;;;;;;5005126;28;20034;-72
2022/04/01 04:44:58;;;;;;;15.90;6.35;;;19.50;66.70;;;;;;5008871;28;20567;-71
2022/04/01 04:47:28;;;;;;;19.10;6.53;;;19.50;66.70;;;;;;5011280;28;20471;-72
2022/04/01 04:49:57;;;;;;;16.55;5.68;;;19.50;66.70;;;;;;5009523;28;20018;-70
2022/04/01 04:52:32;;;;;;;11.93;5.53;;;19.50;66.80;;;;;;5010358;28;20477;-71
2022/04/01 04:55:08;;;;;;;10.00;3.42;;;19.50;66.80;;;;;;5011670;28;20539;-71
2022/04/01 04:57:38;;;;;;;14.63;4.53;;;19.50;66.80;;;;;;5011770;28;20025;-71
2022/04/01 05:00:08;;;;;;;19.15;4.90;;;19.50;66.80;;;;;;5009780;28;20018;-71
2022/04/01 05:02:46;;;;;;;16.60;6.55;;;19.50;66.80;;;;;;5010226;28;20046;-71
2022/04/01 05:05:27;;;;;;;17.58;5.03;;;19.50;66.90;;;;;;5013056;28;20115;-71
2022/04/01 05:08:14;;;;;;;18.13;4.90;;;19.50;67.30;;;;;;5008231;28;20022;-71
2022/04/01 05:10:55;;;;;;;24.17;6.00;;;19.50;67.60;;;;;;5008785;28;20126;-71
2022/04/01 05:13:28;;;;;;;15.57;5.50;;;19.50;67.30;;;;;;5010501;28;20047;-71
2022/04/01 05:16:05;;;;;;;17.95;5.13;;;19.50;67.20;;;;;;5006363;28;20596;-71
2022/04/01 05:18:55;;;;;;;16.67;4.05;;;19.50;67.20;;;;;;5011149;28;20030;-71
2022/04/01 05:21:24;;;;;;;14.23;3.78;;;19.50;67.00;;;;;;5007936;28;20092;-71
2022/04/01 05:23:59;;;;;;;10.23;3.92;;;19.50;66.80;;;;;;5008507;28;20022;-71
2022/04/01 05:26:38;;;;;;;23.48;3.88;;;19.50;66.70;;;;;;5009539;28;20060;-71
2022/04/01 05:29:08;;;;;;;22.65;4.45;;;19.50;66.60;;;;;;5009954;28;20466;-71
2022/04/01 05:31:51;;;;;;;18.10;4.63;;;19.50;66.90;;;;;;5012337;28;20428;-71
2022/04/01 05:34:57;;;;;;;15.75;4.03;;;19.50;66.70;;;;;;5007814;28;20033;-71
2022/04/01 05:37:28;;;;;;;13.13;3.72;;;19.50;66.90;;;;;;4978853;28;20405;-71
2022/04/01 05:39:55;;;;;;;8.57;3.28;;;19.50;66.90;;;;;;5003527;28;20034;-71
2022/04/01 05:42:25;;;;;;;10.98;3.40;;;19.50;67.00;;;;;;5009469;28;20078;-71
2022/04/01 05:44:52;;;;;;;15.18;3.92;;;19.60;67.20;;;;;;5008320;28;20026;-71
2022/04/01 05:47:24;;;;;;;12.35;4.93;;;19.60;67.20;;;;;;5008986;28;20388;-71
2022/04/01 05:49:54;;;;;;;11.90;3.58;;;19.60;67.10;;;;;;5009758;28;20379;-71
2022/04/01 05:52:22;;;;;;;7.50;3.38;;;19.60;67.00;;;;;;5011591;28;20014;-71
2022/04/01 05:54:50;;;;;;;7.32;3.08;;;19.70;66.90;;;;;;5006237;28;20045;-71
2022/04/01 05:57:20;;;;;;;11.63;3.38;;;19.60;66.80;;;;;;5009701;28;20025;-71
2022/04/01 05:59:47;;;;;;;11.02;2.65;;;19.60;66.80;;;;;;5009933;28;20459;-71
2022/04/01 06:02:50;;;;;;;13.25;3.00;;;19.70;67.00;;;;;;5009072;28;20022;-71
2022/04/01 06:05:35;;;;;;;21.20;3.35;;;19.70;67.20;;;;;;5008255;28;20104;-71
2022/04/01 06:08:29;;;;;;;20.83;3.70;;;19.70;67.40;;;;;;5008098;28;20560;-71
2022/04/01 06:11:17;;;;;;;14.63;4.07;;;19.70;67.30;;;;;;5009254;28;20076;-71
2022/04/01 06:14:07;;;;;;;19.95;4.78;;;19.70;67.40;;;;;;5008732;28;20570;-71
2022/04/01 06:16:44;;;;;;;10.25;3.20;;;19.70;67.30;;;;;;5008876;28;20162;-71
2022/04/01 06:19:34;;;;;;;14.43;3.50;;;19.80;67.40;;;;;;5010068;28;20022;-71
2022/04/01 06:22:05;;;;;;;11.73;3.13;;;19.80;67.10;;;;;;5008557;28;20509;-71
2022/04/01 06:24:59;;;;;;;11.60;3.83;;;19.80;67.10;;;;;;5009484;28;20076;-71
2022/04/01 06:27:49;;;;;;;8.88;2.92;;;19.80;67.10;;;;;;5007420;28;20165;-71
2022/04/01 06:30:18;;;;;;;8.93;3.58;;;19.80;67.10;;;;;;5009607;28;20397;-71
2022/04/01 06:33:09;;;;;;;8.27;2.80;;;19.80;67.10;;;;;;5009531;28;20105;-71
2022/04/01 06:35:40;;;;;;;11.02;3.58;;;19.80;67.00;;;;;;5009143;28;20042;-71
2022/04/01 06:38:08;;;;;;;11.88;3.58;;;19.90;67.10;;;;;;5007885;28;20026;-71
2022/04/01 06:40:59;;;;;;;15.52;4.38;;;19.90;67.10;;;;;;5008846;28;20080;-71
2022/04/01 06:43:26;;;;;;;13.00;3.38;;;19.90;66.80;;;;;;5007482;28;20041;-71
2022/04/01 06:45:53;;;;;;;18.23;3.53;;;20.00;66.70;;;;;;5009957;28;20037;-71
2022/04/01 06:48:20;;;;;;;11.65;3.03;;;20.00;66.50;;;;;;5008080;28;20064;-71
2022/04/01 06:50:49;;;;;;;8.95;3.10;;;20.00;66.30;;;;;;5006304;28;20040;-71
2022/04/01 06:53:19;;;;;;;5.50;2.83;;;20.00;66.20;;;;;;5007912;28;20550;-71
2022/04/01 06:55:47;;;;;;;9.38;3.17;;;20.00;66.10;;;;;;5006423;28;20061;-71
2022/04/01 06:58:14;;;;;;;11.23;3.00;;;20.10;66.00;;;;;;5009504;28;20093;-71
2022/04/01 07:00:42;;;;;;;9.60;3.97;;;20.10;65.90;;;;;;5007413;28;20029;-71
2022/04/01 07:03:10;;;;;;;10.80;2.85;;;20.10;65.40;;;;;;5010497;28;20048;-71
2022/04/01 07:05:37;;;;;;;6.00;2.10;;;20.10;65.00;;;;;;5009628;28;20112;-71
2022/04/01 07:08:04;;;;;;;14.23;3.38;;;20.20;64.70;;;;;;5007015;28;20049;-71
2022/04/01 07:10:31;;;;;;;7.07;2.75;;;20.20;64.30;;;;;;5008903;28;20061;-71
2022/04/01 07:12:58;;;;;;;7.93;3.03;;;20.20;64.10;;;;;;5007618;28;20027;-71
2022/04/01 07:15:25;;;;;;;13.63;3.33;;;20.20;63.90;;;;;;5006459;28;20050;-71
2022/04/01 07:17:52;;;;;;;8.48;3.22;;;20.30;63.90;;;;;;5006995;28;20638;-71
2022/04/01 07:20:20;;;;;;;9.27;2.33;;;20.30;64.50;;;;;;5008032;28;20108;-71
2022/04/01 07:22:47;;;;;;;6.03;2.58;;;20.30;64.80;;;;;;5008570;28;20473;-71
2022/04/01 07:25:14;;;;;;;15.55;2.75;;;20.30;64.50;;;;;;5009112;28;20132;-71
2022/04/01 07:27:40;;;;;;;12.45;3.35;;;20.30;64.20;;;;;;5007787;28;20403;-71
2022/04/01 07:30:08;;;;;;;10.20;2.28;;;20.40;64.10;;;;;;5006198;28;20030;-71
2022/04/01 07:32:36;;;;;;;8.85;2.95;;;20.40;63.90;;;;;;5009103;28;20440;-71
2022/04/01 07:35:08;;;;;;;5.93;2.63;;;20.40;63.90;;;;;;5007197;28;20030;-70
2022/04/01 07:37:35;;;;;;;7.50;2.35;;;20.50;63.40;;;;;;5007534;28;20029;-71
2022/04/01 07:40:03;;;;;;;8.30;2.75;;;20.50;63.00;;;;;;5007452;28;20354;-71
2022/04/01 07:42:30;;;;;;;8.75;2.28;;;20.50;62.60;;;;;;5006911;28;20112;-71
2022/04/01 07:44:56;;;;;;;10.05;2.50;;;20.50;62.20;;;;;;5008316;28;20026;-71
2022/04/01 07:47:24;;;;;;;5.53;1.98;;;20.50;61.90;;;;;;5005744;28;20087;-71
2022/04/01 07:49:52;;;;;;;10.02;3.10;;;20.60;61.70;;;;;;5007974;28;20026;-71
2022/04/01 07:52:20;;;;;;;15.15;2.95;;;20.60;61.50;;;;;;5006626;28;20096;-71
2022/04/01 07:54:48;;;;;;;6.55;2.90;;;20.70;61.60;;;;;;5007008;28;20066;-71
2022/04/01 07:57:16;;;;;;;6.88;2.72;;;20.60;61.20;;;;;;5006427;28;20097;-71
2022/04/01 07:59:42;;;;;;;4.75;2.95;;;20.70;60.80;;;;;;5007515;28;20693;-71
2022/04/01 08:02:09;;;;;;;7.80;2.40;;;20.60;60.70;;;;;;5009188;28;20025;-71
2022/04/01 08:04:36;;;;;;;8.15;3.83;;;20.70;60.60;;;;;;5005041;28;20095;-71
2022/04/01 08:07:03;;;;;;;13.35;3.17;;;20.70;60.40;;;;;;5007955;28;20029;-71
2022/04/01 08:09:29;;;;;;;12.48;4.05;;;20.80;60.50;;;;;;5005213;28;20036;-71
2022/04/01 08:11:56;;;;;;;9.65;2.58;;;20.80;60.50;;;;;;5005983;28;20058;-71
2022/04/01 08:14:22;;;;;;;8.02;3.13;;;20.80;60.90;;;;;;5005924;28;20490;-71
2022/04/01 08:16:49;;;;;;;14.15;2.78;;;20.90;61.00;;;;;;5009530;28;20014;-71
2022/04/01 08:19:16;;;;;;;5.10;2.70;;;20.90;61.00;;;;;;5007021;28;20072;-71
2022/04/01 08:21:44;;;;;;;9.65;2.80;;;20.90;60.80;;;;;;5006135;28;20021;-71
2022/04/01 08:24:12;;;;;;;8.52;2.63;;;20.90;60.50;;;;;;5007490;28;20063;-71
2022/04/01 08:26:39;;;;;;;4.93;2.50;;;21.00;60.30;;;;;;5006452;28;20030;-71
2022/04/01 08:29:06;;;;;;;10.57;3.17;;;21.00;60.10;;;;;;5006274;28;20535;-71
2022/04/01 08:31:33;;;;;;;11.95;3.13;;;21.10;60.30;;;;;;5005327;28;20030;-71
2022/04/01 08:34:00;;;;;;;7.40;3.00;;;21.10;60.40;;;;;;5005670;28;20055;-71
2022/04/01 08:36:28;;;;;;;11.18;3.78;;;21.10;60.60;;;;;;5005512;28;20022;-70
2022/04/01 08:38:55;;;;;;;7.38;2.83;;;21.20;60.70;;;;;;5000252;28;20030;-71
2022/04/01 08:41:23;;;;;;;11.98;3.67;;;21.20;60.60;;;;;;5007224;28;20030;-71
2022/04/01 08:43:51;;;;;;;7.18;2.90;;;21.30;60.50;;;;;;5004550;28;20030;-70
2022/04/01 08:46:19;;;;;;;7.45;2.45;;;21.30;60.60;;;;;;5007506;28;20026;-71
2022/04/01 08:48:46;;;;;;;9.88;3.65;;;21.40;60.50;;;;;;5006712;28;20756;-71
2022/04/01 08:51:14;;;;;;;11.07;3.55;;;21.40;60.50;;;;;;5006251;28;20030;-71
2022/04/01 08:53:44;;;;;;;6.97;2.63;;;21.40;60.50;;;;;;5004527;28;20041;-71
2022/04/01 08:56:12;;;;;;;8.85;3.58;;;21.50;60.40;;;;;;5004139;28;20052;-71
2022/04/01 08:58:39;;;;;;;7.70;2.70;;;21.50;60.30;;;;;;5007498;28;20027;-71
2022/04/01 09:01:06;;;;;;;9.75;2.88;;;21.60;60.30;;;;;;5005085;28;20333;-71
2022/04/01 09:03:34;;;;;;;6.60;1.95;;;21.60;60.00;;;;;;5006064;28;20038;-71
2022/04/01 09:06:03;;;;;;;5.80;2.65;;;21.60;59.90;;;;;;5003644;28;20022;-71
2022/04/01 09:08:37;;;;;;;10.35;3.03;;;21.70;59.90;;;;;;5002926;28;20015;-71
2022/04/01 09:11:04;;;;;;;7.53;3.40;;;21.70;59.60;;;;;;5004874;28;20045;-71
2022/04/01 09:13:50;;;;;;;13.13;2.92;;;21.70;59.50;;;;;;5005325;28;20021;-70
2022/04/01 09:16:41;;;;;;;18.35;3.30;;;21.70;59.40;;;;;;5005587;28;20025;-71
2022/04/01 09:19:09;;;;;;;10.65;3.17;;;21.80;59.80;;;;;;5006561;28;20113;-71
2022/04/01 09:21:44;;;;;;;13.57;2.80;;;21.90;59.80;;;;;;5006883;28;20078;-71
2022/04/01 09:24:11;;;;;;;7.28;3.05;;;21.90;59.60;;;;;;5006333;28;20513;-70
2022/04/01 09:27:17;;;;;;;10.50;3.53;;;21.90;59.30;;;;;;5006255;28;20037;-71
2022/04/01 09:30:24;;;;;;;7.45;3.28;;;22.00;59.10;;;;;;5008084;28;20376;-71
2022/04/01 09:33:33;;;;;;;7.75;3.42;;;22.10;58.90;;;;;;5008901;28;20018;-71
2022/04/01 09:36:42;;;;;;;6.47;2.95;;;22.10;58.60;;;;;;5010497;28;20034;-71
2022/04/01 09:39:48;;;;;;;9.98;3.72;;;22.20;58.50;;;;;;5009746;28;20624;-71
2022/04/01 09:42:55;;;;;;;9.07;4.03;;;22.20;58.70;;;;;;5009516;28;20066;-71
2022/04/01 09:46:01;;;;;;;6.70;2.97;;;22.20;58.40;;;;;;5008927;28;20048;-71
2022/04/01 09:49:07;;;;;;;9.23;3.45;;;22.30;57.90;;;;;;5007921;28;20022;-71
2022/04/01 09:52:13;;;;;;;9.82;3.05;;;22.40;57.70;;;;;;5008865;28;20026;-71
2022/04/01 09:55:22;;;;;;;4.75;2.95;;;22.40;57.50;;;;;;5007731;28;20114;-71
2022/04/01 09:58:28;;;;;;;8.38;3.22;;;22.50;57.30;;;;;;5008647;28;20034;-71
2022/04/01 10:01:34;;;;;;;8.73;3.17;;;22.60;56.90;;;;;;5005550;28;20029;-71
2022/04/01 10:04:41;;;;;;;9.10;3.35;;;22.60;56.60;;;;;;5007330;28;20025;-71
2022/04/01 10:07:08;;;;;;;8.73;3.42;;;22.70;56.40;;;;;;5008042;28;20060;-71
2022/04/01 10:09:36;;;;;;;13.80;4.43;;;22.70;56.80;;;;;;5007190;28;20034;-71
2022/04/01 10:12:08;;;;;;;7.38;3.17;;;22.80;56.30;;;;;;5007306;28;20026;-71
2022/04/01 10:14:38;;;;;;;22.23;3.80;;;22.80;56.40;;;;;;5009613;28;20018;-71
2022/04/01 10:17:07;;;;;;;5.57;2.47;;;22.80;56.10;;;;;;5011358;28;20053;-71
2022/04/01 10:19:37;;;;;;;12.48;4.25;;;22.90;56.00;;;;;;5007869;28;20022;-71
2022/04/01 10:22:04;;;;;;;22.55;4.78;;;23.00;56.20;;;;;;5008015;28;20389;-71
2022/04/01 10:24:43;;;;;;;8.95;3.50;;;23.00;56.10;;;;;;5009255;28;20057;-71
2022/04/01 10:27:23;;;;;;;9.57;3.80;;;23.00;56.00;;;;;;5006448;28;20053;-71
2022/04/01 10:29:51;;;;;;;9.52;3.28;;;23.00;55.90;;;;;;5004995;28;20468;-71
2022/04/01 10:32:29;;;;;;;12.77;3.38;;;23.10;56.00;;;;;;5007899;28;20706;-71
2022/04/01 10:34:58;;;;;;;7.25;2.63;;;23.10;55.60;;;;;;5006271;28;20021;-71
2022/04/01 10:37:26;;;;;;;5.35;3.00;;;23.20;55.40;;;;;;5009184;28;20080;-71
2022/04/01 10:39:59;;;;;;;21.15;3.88;;;23.20;55.00;;;;;;5007114;28;20029;-71
2022/04/01 10:42:46;;;;;;;13.68;3.67;;;23.20;54.80;;;;;;5007763;28;20477;-71
2022/04/01 10:45:16;;;;;;;13.60;3.85;;;23.30;55.10;;;;;;5006704;28;20069;-72
2022/04/01 10:53:57;;;;;;;9.57;3.60;;;23.40;54.60;;;;;;5006722;28;20072;-71
2022/04/01 10:56:26;;;;;;;8.35;3.45;;;23.50;54.40;;;;;;5009121;28;20038;-71
2022/04/01 10:59:07;;;;;;;8.63;3.40;;;23.50;54.00;;;;;;5009965;28;20028;-71
2022/04/01 11:01:35;;;;;;;7.38;3.28;;;23.50;53.90;;;;;;5006786;28;20048;-71
2022/04/01 11:04:09;;;;;;;8.25;3.85;;;23.60;53.70;;;;;;5009849;28;20036;-71
2022/04/01 11:06:50;;;;;;;11.40;3.60;;;23.60;53.70;;;;;;5006364;28;20029;-71
2022/04/01 11:09:50;;;;;;;8.00;2.88;;;23.70;53.80;;;;;;5007079;28;20017;-71
2022/04/01 11:12:20;;;;;;;10.05;4.30;;;23.70;53.60;;;;;;5008795;28;20552;-71
2022/04/01 11:14:55;;;;;;;10.27;3.13;;;23.80;53.40;;;;;;5007203;28;20096;-71
2022/04/01 11:17:34;;;;;;;8.30;2.78;;;23.80;53.30;;;;;;5005041;28;20025;-71
2022/04/01 11:20:17;;;;;;;6.53;3.08;;;23.80;53.10;;;;;;5006215;28;20034;-71
2022/04/01 11:22:59;;;;;;;15.73;3.08;;;23.90;52.90;;;;;;5008077;28;20109;-70
2022/04/01 11:25:31;;;;;;;10.65;3.00;;;24.00;52.90;;;;;;5006688;28;20079;-70
2022/04/01 11:27:57;;;;;;;7.85;3.05;;;24.00;53.00;;;;;;5003083;28;20015;-70
2022/04/01 11:30:35;;;;;;;11.00;2.85;;;24.00;53.00;;;;;;5008106;28;20034;-70
2022/04/01 11:33:11;;;;;;;8.55;3.03;;;24.10;52.90;;;;;;5007356;28;20524;-70
2022/04/01 11:35:40;;;;;;;8.82;3.20;;;24.10;53.00;;;;;;5007205;28;20022;-70
2022/04/01 11:38:08;;;;;;;12.68;3.30;;;24.10;53.00;;;;;;5008276;28;20045;-70
2022/04/01 11:40:37;;;;;;;10.35;3.08;;;24.10;53.10;;;;;;5006456;28;20108;-70
2022/04/01 11:43:12;;;;;;;11.18;3.20;;;24.10;52.80;;;;;;5005464;28;21192;-69
2022/04/01 11:45:44;;;;;;;5.40;2.40;;;24.20;53.00;;;;;;5006418;28;20062;-69
2022/04/01 11:48:19;;;;;;;11.90;3.58;;;24.20;53.40;;;;;;5008819;28;20036;-70
2022/04/01 11:50:49;;;;;;;8.50;2.95;;;24.30;54.00;;;;;;5005977;28;20547;-69
2022/04/01 11:53:27;;;;;;;16.48;6.85;;;24.30;53.70;;;;;;5006350;28;20432;-69
2022/04/01 11:55:54;;;;;;;11.88;4.75;;;24.30;54.20;;;;;;5005823;28;20056;-70
2022/04/01 11:58:22;;;;;;;18.15;4.45;;;24.40;54.30;;;;;;5005635;28;20090;-69
2022/04/01 12:00:49;;;;;;;10.85;3.55;;;24.40;54.10;;;;;;5003672;28;20105;-70
2022/04/01 12:03:18;;;;;;;7.75;3.10;;;24.50;53.90;;;;;;5006019;28;20045;-69
2022/04/01 12:05:45;;;;;;;11.82;2.65;;;24.50;53.70;;;;;;5005206;28;20026;-69
2022/04/01 12:11:02;;;;;;;8.27;2.42;;;24.60;53.40;;;;;;5001946;28;20115;-70
2022/04/01 12:13:30;;;;;;;8.95;1.83;;;24.60;53.30;;;;;;5007214;28;20058;-70
2022/04/01 12:15:59;;;;;;;20.63;2.95;;;24.60;53.50;;;;;;5004098;28;20018;-70
2022/04/01 12:18:30;;;;;;;7.50;2.40;;;24.60;54.40;;;;;;5004558;28;20041;-70
2022/04/01 12:21:01;;;;;;;7.53;3.30;;;24.60;54.60;;;;;;5008904;28;20022;-69
2022/04/01 12:23:32;;;;;;;14.13;2.42;;;24.60;54.90;;;;;;5005760;28;20037;-70
2022/04/01 12:26:00;;;;;;;9.80;2.58;;;24.60;55.30;;;;;;5004239;28;20505;-70
2022/04/01 12:28:36;;;;;;;18.80;2.67;;;24.60;55.70;;;;;;5005479;28;20387;-70
2022/04/01 12:31:03;;;;;;;12.88;3.00;;;24.60;55.90;;;;;;5004822;28;20101;-70
2022/04/01 12:33:33;;;;;;;10.27;2.58;;;24.60;56.00;;;;;;5006075;28;20022;-70
2022/04/01 12:36:05;;;;;;;5.60;2.97;;;24.60;56.30;;;;;;5006132;28;20017;-70
2022/04/01 12:38:36;;;;;;;8.10;1.73;;;24.60;56.60;;;;;;5004669;28;20373;-70
2022/04/01 12:41:06;;;;;;;8.95;2.33;;;24.60;56.90;;;;;;5005006;28;20496;-69
2022/04/01 12:43:45;;;;;;;9.30;2.90;;;24.60;57.00;;;;;;5003482;28;20066;-69
2022/04/01 12:46:34;;;;;;;5.03;1.80;;;24.60;57.20;;;;;;5005640;28;20022;-69
2022/04/01 12:49:11;;;;;;;9.77;2.22;;;24.60;57.60;;;;;;5002080;28;20041;-70
2022/04/01 12:51:40;;;;;;;7.25;2.78;;;24.60;57.60;;;;;;5005689;28;21016;-70
2022/04/01 12:54:12;;;;;;;6.65;2.22;;;24.60;58.00;;;;;;5005469;28;20498;-70
2022/04/01 12:56:49;;;;;;;8.25;1.90;;;24.60;58.30;;;;;;5005228;28;20034;-70
2022/04/01 12:59:21;;;;;;;11.07;2.65;;;24.60;58.50;;;;;;5006036;28;20025;-70
2022/04/01 13:02:01;;;;;;;6.97;2.13;;;24.60;58.60;;;;;;5004701;28;20026;-70
2022/04/01 13:04:28;;;;;;;5.10;1.80;;;24.60;58.50;;;;;;5004654;28;21662;-70
2022/04/01 13:07:08;;;;;;;9.45;2.28;;;24.60;58.40;;;;;;5007953;28;20037;-69
2022/04/01 13:09:54;;;;;;;6.70;1.92;;;24.50;58.00;;;;;;5008828;28;20041;-69
2022/04/01 13:12:40;;;;;;;10.32;2.80;;;24.60;57.70;;;;;;5008780;28;20028;-70
2022/04/01 13:15:16;;;;;;;5.28;3.42;;;24.50;57.50;;;;;;5011786;28;21197;-70
2022/04/01 13:17:44;;;;;;;7.88;3.20;;;24.40;57.30;;;;;;5007678;28;20038;-70
2022/04/01 13:20:15;;;;;;;8.25;2.58;;;24.50;57.50;;;;;;5007238;28;20080;-70